createdAt,value
2019-05-26T00:02:46.382Z,3.03
2019-05-26T00:05:35.112Z,3.10
2019-05-26T00:08:23.347Z,2.33
2019-05-26T00:11:11.878Z,2.60
2019-05-26T00:14:01.986Z,2.90
2019-05-26T00:16:50.586Z,3.30
2019-05-26T00:19:40.386Z,3.03
2019-05-26T00:22:28.636Z,3.17
2019-05-26T00:25:17.460Z,3.15
2019-05-26T00:28:05.974Z,3.10
2019-05-26T00:30:54.362Z,2.42
2019-05-26T00:33:42.629Z,3.30
2019-05-26T00:36:31.006Z,3.40
2019-05-26T00:39:19.400Z,2.67
2019-05-26T00:42:07.994Z,2.50
2019-05-26T00:44:56.130Z,2.67
2019-05-26T00:47:45.168Z,2.90
2019-05-26T00:50:33.310Z,2.60
2019-05-26T00:53:21.770Z,2.30
2019-05-26T00:56:10.150Z,3.50
2019-05-26T00:58:58.452Z,2.20
2019-05-26T01:01:47.044Z,2.90
2019-05-26T01:04:35.196Z,3.37
2019-05-26T01:07:23.744Z,3.10
2019-05-26T01:10:13.110Z,2.62
2019-05-26T01:13:01.375Z,2.90
2019-05-26T01:15:49.697Z,2.77
2019-05-26T01:18:38.599Z,2.50
2019-05-26T01:21:26.808Z,2.73
2019-05-26T01:24:15.150Z,2.60
2019-05-26T01:27:03.759Z,2.60
2019-05-26T01:29:52.335Z,2.47
2019-05-26T01:32:40.959Z,2.93
2019-05-26T01:35:29.727Z,2.40
2019-05-26T01:38:24.344Z,2.70
2019-05-26T01:41:10.205Z,2.20
2019-05-26T01:43:58.284Z,2.67
2019-05-26T01:46:46.790Z,2.30
2019-05-26T01:49:37.123Z,2.05
2019-05-26T01:52:25.418Z,2.40
2019-05-26T01:55:14.280Z,2.67
2019-05-26T01:58:02.502Z,2.20
2019-05-26T02:00:50.661Z,2.50
2019-05-26T02:03:39.198Z,2.20
2019-05-26T02:06:27.831Z,2.50
2019-05-26T02:09:16.171Z,2.93
2019-05-26T02:12:04.626Z,2.30
2019-05-26T02:14:53.211Z,2.45
2019-05-26T02:17:41.487Z,2.50
2019-05-26T02:20:29.880Z,2.77
2019-05-26T02:23:18.666Z,2.70
2019-05-26T02:26:07.359Z,2.93
2019-05-26T02:28:55.831Z,3.17
2019-05-26T02:31:44.102Z,2.50
2019-05-26T02:34:32.396Z,2.30
2019-05-26T02:37:21.060Z,2.63
2019-05-26T02:40:11.579Z,2.20
2019-05-26T02:43:00.182Z,2.10
2019-05-26T02:45:48.701Z,2.70
2019-05-26T02:48:37.746Z,2.83
2019-05-26T02:51:26.235Z,2.33
2019-05-26T02:54:14.616Z,2.60
2019-05-26T02:57:03.342Z,2.80
2019-05-26T02:59:51.473Z,2.30
2019-05-26T03:02:40.719Z,2.30
2019-05-26T03:05:30.452Z,2.87
2019-05-26T03:08:18.963Z,2.20
2019-05-26T03:11:08.611Z,2.10
2019-05-26T03:13:59.969Z,2.23
2019-05-26T03:16:49.779Z,2.60
2019-05-26T03:19:41.532Z,2.30
2019-05-26T03:22:31.066Z,2.10
2019-05-26T03:25:19.611Z,2.63
2019-05-26T03:28:08.464Z,2.40
2019-05-26T03:30:56.725Z,2.50
2019-05-26T03:33:45.411Z,2.20
2019-05-26T03:36:34.010Z,2.23
2019-05-26T03:39:42.632Z,2.30
2019-05-26T03:42:12.524Z,2.40
2019-05-26T03:45:01.401Z,2.30
2019-05-26T03:47:50.179Z,2.30
2019-05-26T03:50:38.333Z,2.27
2019-05-26T03:53:26.765Z,2.23
2019-05-26T03:56:15.087Z,2.80
2019-05-26T03:59:03.342Z,2.50
2019-05-26T04:01:56.327Z,2.30
2019-05-26T04:04:41.568Z,2.50
2019-05-26T04:07:30.088Z,2.30
2019-05-26T04:10:18.721Z,2.45
2019-05-26T04:13:07.366Z,2.20
2019-05-26T04:15:56.010Z,1.70
2019-05-26T04:18:44.315Z,2.15
2019-05-26T04:21:32.854Z,2.20
2019-05-26T04:24:21.026Z,2.20
2019-05-26T04:27:09.585Z,2.50
2019-05-26T04:29:57.690Z,1.98
2019-05-26T04:32:46.183Z,1.77
2019-05-26T04:35:34.559Z,2.17
2019-05-26T04:38:22.731Z,2.30
2019-05-26T04:41:11.487Z,2.10
2019-05-26T04:43:59.947Z,2.30
2019-05-26T04:46:48.379Z,1.60
2019-05-26T04:49:37.825Z,2.27
2019-05-26T04:52:26.303Z,2.17
2019-05-26T04:55:15.715Z,1.97
2019-05-26T04:58:04.724Z,2.10
2019-05-26T05:00:52.756Z,2.07
2019-05-26T05:03:41.139Z,2.07
2019-05-26T05:06:29.365Z,1.80
2019-05-26T05:09:18.282Z,2.50
2019-05-26T05:12:06.388Z,1.80
2019-05-26T05:14:54.597Z,1.83
2019-05-26T05:17:43.074Z,5.37
2019-05-26T05:20:31.585Z,2.97
2019-05-26T05:23:20.423Z,2.90
2019-05-26T05:26:09.059Z,2.10
2019-05-26T05:28:58.079Z,3.00
2019-05-26T05:31:46.264Z,2.93
2019-05-26T05:34:35.093Z,2.40
2019-05-26T05:37:25.250Z,3.13
2019-05-26T05:40:15.604Z,2.37
2019-05-26T05:43:03.881Z,2.90
2019-05-26T05:45:52.421Z,2.43
2019-05-26T05:48:40.927Z,2.50
2019-05-26T05:51:29.500Z,2.00
2019-05-26T05:54:17.934Z,2.10
2019-05-26T05:57:06.605Z,1.80
2019-05-26T05:59:54.902Z,2.20
2019-05-26T06:02:43.986Z,1.80
2019-05-26T06:05:32.514Z,1.40
2019-05-26T06:08:22.393Z,2.20
2019-05-26T06:11:16.631Z,1.50
2019-05-26T06:14:00.937Z,1.87
2019-05-26T06:16:49.590Z,2.87
2019-05-26T06:19:38.099Z,2.10
2019-05-26T06:22:26.938Z,2.63
2019-05-26T06:25:17.262Z,1.90
2019-05-26T06:28:06.010Z,1.80
2019-05-26T06:30:54.487Z,1.60
2019-05-26T06:33:43.191Z,1.73
2019-05-26T06:36:32.492Z,1.77
2019-05-26T06:39:20.926Z,2.30
2019-05-26T06:42:12.820Z,2.30
2019-05-26T06:44:59.305Z,1.87
2019-05-26T06:47:47.534Z,2.17
2019-05-26T06:50:36.132Z,1.93
2019-05-26T06:53:24.542Z,1.70
2019-05-26T06:56:13.347Z,2.20
2019-05-26T06:59:02.885Z,2.67
2019-05-26T07:01:51.786Z,2.60
2019-05-26T07:04:40.603Z,2.20
2019-05-26T07:07:28.904Z,2.33
2019-05-26T07:10:17.320Z,2.20
2019-05-26T07:13:05.767Z,2.60
2019-05-26T07:15:54.048Z,3.00
2019-05-26T07:18:42.997Z,2.57
2019-05-26T07:21:31.372Z,3.00
2019-05-26T07:24:20.144Z,3.17
2019-05-26T07:27:08.564Z,2.77
2019-05-26T07:29:57.476Z,4.70
2019-05-26T07:32:46.083Z,8.27
2019-05-26T07:35:35.355Z,8.13
2019-05-26T07:38:24.813Z,7.97
2019-05-26T07:41:13.571Z,8.10
2019-05-26T07:43:44.299Z,8.40
2019-05-26T07:46:14.974Z,8.27
2019-05-26T07:48:45.671Z,8.53
2019-05-26T07:51:16.325Z,8.77
2019-05-26T07:54:05.138Z,7.23
2019-05-26T07:56:53.787Z,6.50
2019-05-26T07:59:41.901Z,7.03
2019-05-26T08:02:30.339Z,7.10
2019-05-26T08:05:18.847Z,6.67
2019-05-26T08:08:12.546Z,7.12
2019-05-26T08:10:57.320Z,6.10
2019-05-26T08:13:45.417Z,6.37
2019-05-26T08:16:33.861Z,6.20
2019-05-26T08:19:22.146Z,5.60
2019-05-26T08:21:54.703Z,5.57
2019-05-26T08:24:43.052Z,4.77
2019-05-26T08:27:31.393Z,5.63
2019-05-26T08:30:20.991Z,4.75
2019-05-26T08:33:09.491Z,4.50
2019-05-26T08:35:57.857Z,4.17
2019-05-26T08:38:46.441Z,4.77
2019-05-26T08:41:34.682Z,4.60
2019-05-26T08:44:24.441Z,4.63
2019-05-26T08:47:13.468Z,4.00
2019-05-26T08:50:01.935Z,4.23
2019-05-26T08:52:51.124Z,3.93
2019-05-26T08:55:40.102Z,4.50
2019-05-26T08:58:29.576Z,4.10
2019-05-26T09:01:18.135Z,4.43
2019-05-26T09:04:06.449Z,4.40
2019-05-26T09:06:55.006Z,5.20
2019-05-26T09:09:43.230Z,4.80
2019-05-26T09:12:31.499Z,4.30
2019-05-26T09:15:20.198Z,5.10
2019-05-26T09:18:08.456Z,5.33
2019-05-26T09:20:56.746Z,4.80
2019-05-26T09:23:45.570Z,4.97
2019-05-26T09:26:34.283Z,4.92
2019-05-26T09:29:22.627Z,4.70
2019-05-26T09:32:11.068Z,4.47
2019-05-26T09:34:59.270Z,4.20
2019-05-26T09:37:48.184Z,4.80
2019-05-26T09:40:36.529Z,5.33
2019-05-26T09:43:24.760Z,4.47
2019-05-26T09:46:13.522Z,4.73
2019-05-26T09:49:02.000Z,4.20
2019-05-26T09:51:51.375Z,4.63
2019-05-26T09:54:39.679Z,4.63
2019-05-26T09:57:28.197Z,5.20
2019-05-26T10:00:18.841Z,4.10
2019-05-26T10:03:07.585Z,3.40
2019-05-26T10:05:57.183Z,3.70
2019-05-26T10:08:45.633Z,3.90
2019-05-26T10:11:34.298Z,3.73
2019-05-26T10:14:22.698Z,3.87
2019-05-26T10:17:11.014Z,4.37
2019-05-26T10:20:00.309Z,4.30
2019-05-26T10:22:48.925Z,3.70
2019-05-26T10:25:37.692Z,3.17
2019-05-26T10:28:26.075Z,4.83
2019-05-26T10:31:14.634Z,3.30
2019-05-26T10:34:03.267Z,2.90
2019-05-26T10:36:51.833Z,2.70
2019-05-26T10:39:40.597Z,2.80
2019-05-26T10:42:29.001Z,2.70
2019-05-26T10:45:19.605Z,3.37
2019-05-26T10:48:08.385Z,2.77
2019-05-26T10:50:56.776Z,2.62
2019-05-26T10:53:45.334Z,2.17
2019-05-26T10:56:34.068Z,3.52
2019-05-26T10:59:22.437Z,6.03
2019-05-26T11:02:11.005Z,6.63
2019-05-26T11:05:01.020Z,6.60
2019-05-26T11:07:49.347Z,10.20
2019-05-26T11:10:37.860Z,8.73
2019-05-26T11:13:26.057Z,9.10
2019-05-26T11:16:14.684Z,8.67
2019-05-26T11:19:03.075Z,8.65
2019-05-26T11:21:52.186Z,8.33
2019-05-26T11:24:41.110Z,8.37
2019-05-26T11:27:30.464Z,9.00
2019-05-26T11:30:20.534Z,8.00
2019-05-26T11:33:09.208Z,9.03
2019-05-26T11:35:59.083Z,8.67
2019-05-26T11:38:47.586Z,8.03
2019-05-26T11:41:35.797Z,6.80
2019-05-26T11:44:24.648Z,7.83
2019-05-26T11:47:13.248Z,6.70
2019-05-26T11:50:01.827Z,7.00
2019-05-26T11:52:50.447Z,7.20
2019-05-26T11:55:40.564Z,6.83
2019-05-26T11:58:29.192Z,6.67
2019-05-26T12:01:17.762Z,7.33
2019-05-26T12:04:06.598Z,6.03
2019-05-26T12:06:55.208Z,6.50
2019-05-26T12:09:43.406Z,5.57
2019-05-26T12:12:32.024Z,5.42
2019-05-26T12:15:21.468Z,6.17
2019-05-26T12:18:09.846Z,5.40
2019-05-26T12:20:58.568Z,4.97
2019-05-26T12:23:47.320Z,5.37
2019-05-26T12:26:35.814Z,5.43
2019-05-26T12:29:24.176Z,5.93
2019-05-26T12:32:12.516Z,5.90
2019-05-26T12:35:00.864Z,6.43
2019-05-26T12:37:49.145Z,5.77
2019-05-26T12:40:44.784Z,5.17
2019-05-26T12:43:32.976Z,5.10
2019-05-26T12:46:22.171Z,5.37
2019-05-26T12:49:10.662Z,5.53
2019-05-26T12:51:59.166Z,4.23
2019-05-26T12:54:48.435Z,4.80
2019-05-26T12:57:36.872Z,4.80
2019-05-26T13:00:25.373Z,4.70
2019-05-26T13:03:13.836Z,4.90
2019-05-26T13:06:04.833Z,4.27
2019-05-26T13:08:53.970Z,3.98
2019-05-26T13:11:43.633Z,3.93
2019-05-26T13:14:32.577Z,4.00
2019-05-26T13:17:20.912Z,4.07
2019-05-26T13:20:11.052Z,3.40
2019-05-26T13:22:59.368Z,3.67
2019-05-26T13:25:47.939Z,3.43
2019-05-26T13:28:36.085Z,3.50
2019-05-26T13:31:24.859Z,4.27
2019-05-26T13:34:13.459Z,3.77
2019-05-26T13:37:01.963Z,4.20
2019-05-26T13:39:50.317Z,3.97
2019-05-26T13:42:38.556Z,3.43
2019-05-26T13:45:26.876Z,4.13
2019-05-26T13:48:15.173Z,4.40
2019-05-26T13:51:03.625Z,3.25
2019-05-26T13:53:52.077Z,3.47
2019-05-26T13:56:40.725Z,3.50
2019-05-26T13:59:28.940Z,3.70
2019-05-26T14:02:17.434Z,3.40
2019-05-26T14:05:09.564Z,3.53
2019-05-26T14:07:57.733Z,3.43
2019-05-26T14:10:46.205Z,4.00
2019-05-26T14:13:36.093Z,5.47
2019-05-26T14:16:26.206Z,4.97
2019-05-26T14:19:16.048Z,4.57
2019-05-26T14:22:05.346Z,4.13
2019-05-26T14:24:54.606Z,5.20
2019-05-26T14:27:43.640Z,4.47
2019-05-26T14:30:31.960Z,4.10
2019-05-26T14:33:20.133Z,4.10
2019-05-26T14:36:08.894Z,3.95
2019-05-26T14:38:57.100Z,3.80
2019-05-26T14:41:45.807Z,5.00
2019-05-26T14:44:35.687Z,3.97
2019-05-26T14:47:24.714Z,4.55
2019-05-26T14:50:14.575Z,4.00
2019-05-26T14:53:02.753Z,4.60
2019-05-26T14:55:51.317Z,4.20
2019-05-26T14:58:39.633Z,4.60
2019-05-26T15:01:29.493Z,3.83
2019-05-26T15:04:18.046Z,4.47
2019-05-26T15:07:06.659Z,4.00
2019-05-26T15:09:55.328Z,4.07
2019-05-26T15:12:43.591Z,4.47
2019-05-26T15:15:34.984Z,4.43
2019-05-26T15:18:22.484Z,4.30
2019-05-26T15:21:11.208Z,4.40
2019-05-26T15:23:59.448Z,4.80
2019-05-26T15:26:47.815Z,5.30
2019-05-26T15:29:36.429Z,5.90
2019-05-26T15:32:25.489Z,6.60
2019-05-26T15:35:14.937Z,6.40
2019-05-26T15:38:03.505Z,7.10
2019-05-26T15:40:51.832Z,8.10
2019-05-26T15:43:41.000Z,8.33
2019-05-26T15:46:29.371Z,8.03
2019-05-26T15:49:17.525Z,7.87
2019-05-26T15:52:06.216Z,8.67
2019-05-26T15:54:56.108Z,7.80
2019-05-26T15:57:44.454Z,7.60
2019-05-26T16:00:33.671Z,7.93
2019-05-26T16:03:21.818Z,7.87
2019-05-26T16:06:10.281Z,8.13
2019-05-26T16:08:59.350Z,8.00
2019-05-26T16:11:48.136Z,8.13
2019-05-26T16:14:36.455Z,8.13
2019-05-26T16:17:25.815Z,7.90
2019-05-26T16:20:15.477Z,8.67
2019-05-26T16:23:04.388Z,8.50
2019-05-26T16:25:54.016Z,8.87
2019-05-26T16:28:43.084Z,8.60
2019-05-26T16:31:31.576Z,8.67
2019-05-26T16:34:19.855Z,8.67
2019-05-26T16:37:08.637Z,8.97
2019-05-26T16:39:57.100Z,8.70
2019-05-26T16:42:45.411Z,7.73
2019-05-26T16:45:37.147Z,8.77
2019-05-26T16:48:25.783Z,8.60
2019-05-26T16:51:14.174Z,8.33
2019-05-26T16:54:02.272Z,9.13
2019-05-26T16:56:50.619Z,8.23
2019-05-26T16:59:39.401Z,8.90
2019-05-26T17:02:27.689Z,9.63
2019-05-26T17:05:15.958Z,9.13
2019-05-26T17:08:04.517Z,8.70
2019-05-26T17:10:54.303Z,9.53
2019-05-26T17:13:42.821Z,8.63
2019-05-26T17:16:30.978Z,7.17
2019-05-26T17:19:19.228Z,7.47
2019-05-26T17:22:07.610Z,8.03
2019-05-26T17:24:59.846Z,7.13
2019-05-26T17:27:46.437Z,7.47
2019-05-26T17:30:34.905Z,8.10
2019-05-26T17:33:24.153Z,7.17
2019-05-26T17:36:12.593Z,7.22
2019-05-26T17:39:01.236Z,6.90
2019-05-26T17:41:49.523Z,6.60
2019-05-26T17:44:37.666Z,7.77
2019-05-26T17:47:30.259Z,6.13
2019-05-26T17:50:17.600Z,7.10
2019-05-26T17:53:05.880Z,6.60
2019-05-26T17:55:54.422Z,5.90
2019-05-26T17:58:43.163Z,6.03
2019-05-26T18:01:31.747Z,6.00
2019-05-26T18:04:19.995Z,5.90
2019-05-26T18:07:08.685Z,6.00
2019-05-26T18:09:57.135Z,5.60
2019-05-26T18:12:45.591Z,5.77
2019-05-26T18:15:34.101Z,6.53
2019-05-26T18:18:22.678Z,5.30
2019-05-26T18:21:11.206Z,5.00
2019-05-26T18:23:59.554Z,4.73
2019-05-26T18:26:48.494Z,4.47
2019-05-26T18:29:36.557Z,4.93
2019-05-26T18:32:25.350Z,5.00
2019-05-26T18:35:14.450Z,4.37
2019-05-26T18:38:02.778Z,4.30
2019-05-26T18:40:51.048Z,4.47
2019-05-26T18:43:39.685Z,3.77
2019-05-26T18:46:28.089Z,4.20
2019-05-26T18:49:16.589Z,4.53
2019-05-26T18:52:05.207Z,4.20
2019-05-26T18:54:53.708Z,4.07
2019-05-26T18:57:42.255Z,3.70
2019-05-26T19:00:31.435Z,3.67
2019-05-26T19:03:20.501Z,3.77
2019-05-26T19:06:08.858Z,4.40
2019-05-26T19:08:58.009Z,3.35
2019-05-26T19:11:46.472Z,3.13
2019-05-26T19:14:35.240Z,3.30
2019-05-26T19:17:23.487Z,4.10
2019-05-26T19:20:16.718Z,3.37
2019-05-26T19:23:03.564Z,3.27
2019-05-26T19:25:51.675Z,2.93
2019-05-26T19:28:40.345Z,3.97
2019-05-26T19:31:28.867Z,3.43
2019-05-26T19:34:17.248Z,3.70
2019-05-26T19:37:06.568Z,3.40
2019-05-26T19:39:54.991Z,3.77
2019-05-26T19:42:43.577Z,2.90
2019-05-26T19:45:31.651Z,3.50
2019-05-26T19:48:35.028Z,3.17
2019-05-26T19:51:10.153Z,2.90
2019-05-26T19:53:58.442Z,2.87
2019-05-26T19:56:46.906Z,2.60
2019-05-26T19:59:35.579Z,2.77
2019-05-26T20:02:24.136Z,2.93
2019-05-26T20:05:14.758Z,2.83
2019-05-26T20:08:03.286Z,2.50
2019-05-26T20:10:51.689Z,2.60
2019-05-26T20:13:40.208Z,2.40
2019-05-26T20:16:30.835Z,3.30
2019-05-26T20:19:18.796Z,3.00
2019-05-26T20:22:06.982Z,3.00
2019-05-26T20:24:55.214Z,2.90
2019-05-26T20:27:43.483Z,3.40
2019-05-26T20:30:31.851Z,2.40
2019-05-26T20:33:19.984Z,3.20
2019-05-26T20:36:08.100Z,2.17
2019-05-26T20:38:56.776Z,2.70
2019-05-26T20:41:45.768Z,2.50
2019-05-26T20:44:34.496Z,3.00
2019-05-26T20:47:23.063Z,2.20
2019-05-26T20:50:27.653Z,2.60
2019-05-26T20:53:02.684Z,2.40
2019-05-26T20:55:51.001Z,2.40
2019-05-26T20:58:39.184Z,2.07
2019-05-26T21:01:27.706Z,2.27
2019-05-26T21:04:16.573Z,2.55
2019-05-26T21:07:06.996Z,2.03
2019-05-26T21:09:55.541Z,2.60
2019-05-26T21:12:44.392Z,2.50
2019-05-26T21:15:32.554Z,2.17
2019-05-26T21:18:21.188Z,2.60
2019-05-26T21:21:09.817Z,2.30
2019-05-26T21:23:58.489Z,2.77
2019-05-26T21:26:48.448Z,2.30
2019-05-26T21:29:37.177Z,2.37
2019-05-26T21:32:25.502Z,2.20
2019-05-26T21:35:15.874Z,2.40
2019-05-26T21:38:04.687Z,1.93
2019-05-26T21:40:53.305Z,2.50
2019-05-26T21:43:41.588Z,2.43
2019-05-26T21:46:30.406Z,2.20
2019-05-26T21:49:18.579Z,2.50
2019-05-26T21:52:07.262Z,2.73
2019-05-26T21:54:55.761Z,2.20
2019-05-26T21:57:44.637Z,2.30
2019-05-26T22:00:35.549Z,2.50
2019-05-26T22:03:23.880Z,1.97
2019-05-26T22:06:12.415Z,2.33
2019-05-26T22:09:00.733Z,2.10
2019-05-26T22:11:48.962Z,2.17
2019-05-26T22:14:37.484Z,2.00
2019-05-26T22:17:26.203Z,1.93
2019-05-26T22:20:15.890Z,3.20
2019-05-26T22:23:03.978Z,2.50
2019-05-26T22:25:52.180Z,2.20
2019-05-26T22:28:41.019Z,2.37
2019-05-26T22:31:30.345Z,2.27
2019-05-26T22:34:19.207Z,1.97
2019-05-26T22:37:07.477Z,1.90
2019-05-26T22:39:55.682Z,1.63
2019-05-26T22:42:43.831Z,2.20
2019-05-26T22:45:32.070Z,2.27
2019-05-26T22:48:20.335Z,2.07
2019-05-26T22:51:09.105Z,2.77
2019-05-26T22:53:57.599Z,1.72
2019-05-26T22:56:45.947Z,2.10
2019-05-26T22:59:34.942Z,2.03
2019-05-26T23:02:23.337Z,1.90
2019-05-26T23:05:12.856Z,2.67
2019-05-26T23:08:00.974Z,1.70
2019-05-26T23:10:49.795Z,1.97
2019-05-26T23:13:38.204Z,2.30
2019-05-26T23:16:27.162Z,2.03
2019-05-26T23:19:19.268Z,2.10
2019-05-26T23:22:05.814Z,2.15
2019-05-26T23:24:54.353Z,2.03
2019-05-26T23:27:42.955Z,2.37
2019-05-26T23:30:31.541Z,2.80
2019-05-26T23:33:19.702Z,2.17
2019-05-26T23:36:09.092Z,2.08
2019-05-26T23:38:57.385Z,2.90
2019-05-26T23:41:45.817Z,2.10
2019-05-26T23:44:33.907Z,1.73
2019-05-26T23:47:22.635Z,2.27
2019-05-26T23:50:11.043Z,2.52
2019-05-26T23:52:59.297Z,2.30
2019-05-26T23:55:47.598Z,2.10
2019-05-26T23:58:35.802Z,2.37
